sim
Sign-in with your pilot id or email,
or register
Callsign
Passwort

Schedule Details

Flight Number: DLH2386 (1)
Departure: Munich Airport (EDDM) at 14:10
Arrival: Geneva International Airport (LSGG) at 15:25
Route: Lufthansa Passenger Schedule. Enter filed route here before submitting Pirep.

Weather Information
Getting current METAR information for EDDM 242020Z 06005KT CAVOK 16/14 Q1003 NOSIG
Getting current METAR information for LSGG 242020Z 25014G28KT 220V290 3800 VCTS SHRA FEW015 SCT025 FEW040TCU BKN050 15/12 Q1006 TEMPO TSRA

Schedule Frequency

Route Map